Pays
Station

 

Conditions  météo  pour  Rosario Aerodrome  -  Argentine    Argentine

  
19 °C
    
 
 

METAR pour Rosario Aerodrome :

SAAR 212300Z 09010KT 9999 SCT035 FEW038TCU BKN100 19/14 Q1013

 

Voici le bulletin pour Rosario Aerodrome - Argentine.
 
Le bulletin a été fait il y a 60 minutes, à 23:00 UTC .
Le vent soufflait à la vitesse de 5.1 mètres par seconde de Est (090°).
 
La température était de 19 °C, avec un point de rosée à 14 °C.
La pression atmosphérique était de 1013 hPa.
L'humidité relative était de 72.8%.
 
Il y avait 3 à 4/8ème de nébulosité à une hauteur de 1067 mètres, 1 à 2/8ème cumulus congestus de nébulosité à une hauteur de 1158 mètres et 5 à 7/8ème de nébulosité à une hauteur de 3048 mètres.
 
La visibilité globale était de supérieure à 10 kilomètres.
 

 
 
 

Pays :   A   B   C   D   E   F   G   H   I   J   K   L   M   N   O   P   Q   R   S   T   U   V   W   Y   Z

 

Partenaires :  Info Météo avec Met'info
Météo Marine avec MeteoMarine.net
Infos Site  |  Infos Légales  |  Crédits  |  Confidentialité
Contactez-nous  |  Ajouter aux favoris
© 2013-2018 METAR - Tous droits réservés